sensor_id;sensor_type;location;lat;lon;timestamp;pressure;altitude;pressure_sealevel;temperature;humidity
21588;BME280;10956;48.878;13.316;2023-05-12T00:02:20;93939.47;;;9.83;100.00
21588;BME280;10956;48.878;13.316;2023-05-12T00:04:45;93932.09;;;9.85;100.00
21588;BME280;10956;48.878;13.316;2023-05-12T00:07:11;93928.41;;;9.86;100.00
21588;BME280;10956;48.878;13.316;2023-05-12T00:09:36;93932.38;;;9.84;100.00
21588;BME280;10956;48.878;13.316;2023-05-12T00:12:02;93917.38;;;9.84;100.00
21588;BME280;10956;48.878;13.316;2023-05-12T00:14:27;93920.53;;;9.86;100.00
21588;BME280;10956;48.878;13.316;2023-05-12T00:16:53;93913.16;;;9.88;100.00
21588;BME280;10956;48.878;13.316;2023-05-12T00:19:19;93918.44;;;9.78;100.00
21588;BME280;10956;48.878;13.316;2023-05-12T00:21:45;93915.28;;;9.76;100.00
21588;BME280;10956;48.878;13.316;2023-05-12T00:24:11;93920.53;;;9.76;100.00
21588;BME280;10956;48.878;13.316;2023-05-12T00:26:36;93906.34;;;9.67;100.00
21588;BME280;10956;48.878;13.316;2023-05-12T00:29:02;93915.31;;;9.66;100.00
21588;BME280;10956;48.878;13.316;2023-05-12T00:31:30;93906.88;;;9.69;100.00
21588;BME280;10956;48.878;13.316;2023-05-12T00:33:56;93910.00;;;9.76;100.00
21588;BME280;10956;48.878;13.316;2023-05-12T00:36:21;93899.50;;;9.71;100.00
21588;BME280;10956;48.878;13.316;2023-05-12T00:38:47;93896.09;;;9.70;100.00
21588;BME280;10956;48.878;13.316;2023-05-12T00:41:12;93905.28;;;9.73;100.00
21588;BME280;10956;48.878;13.316;2023-05-12T00:43:37;93904.75;;;9.76;100.00
21588;BME280;10956;48.878;13.316;2023-05-12T00:46:04;93893.72;;;9.74;100.00
21588;BME280;10956;48.878;13.316;2023-05-12T00:48:31;93895.81;;;9.77;100.00
21588;BME280;10956;48.878;13.316;2023-05-12T00:50:57;93904.22;;;9.84;100.00
21588;BME280;10956;48.878;13.316;2023-05-12T00:53:23;93907.63;;;9.80;100.00
21588;BME280;10956;48.878;13.316;2023-05-12T00:55:49;93902.09;;;9.81;100.00
21588;BME280;10956;48.878;13.316;2023-05-12T00:58:15;93897.88;;;9.85;100.00
21588;BME280;10956;48.878;13.316;2023-05-12T01:00:40;93896.84;;;9.86;100.00
21588;BME280;10956;48.878;13.316;2023-05-12T01:03:05;93895.78;;;9.87;100.00
21588;BME280;10956;48.878;13.316;2023-05-12T01:05:37;93896.81;;;9.91;100.00
21588;BME280;10956;48.878;13.316;2023-05-12T01:08:04;93902.09;;;9.91;100.00
21588;BME280;10956;48.878;13.316;2023-05-12T01:10:30;93906.28;;;9.92;100.00
21588;BME280;10956;48.878;13.316;2023-05-12T01:12:55;93895.22;;;9.95;100.00
21588;BME280;10956;48.878;13.316;2023-05-12T01:15:21;93902.63;;;9.83;100.00
21588;BME280;10956;48.878;13.316;2023-05-12T01:17:52;93893.44;;;9.76;100.00
21588;BME280;10956;48.878;13.316;2023-05-12T01:20:21;93893.72;;;9.64;100.00
21588;BME280;10956;48.878;13.316;2023-05-12T01:22:49;93894.00;;;9.62;100.00
21588;BME280;10956;48.878;13.316;2023-05-12T01:25:15;93893.72;;;9.69;100.00
21588;BME280;10956;48.878;13.316;2023-05-12T01:27:42;93897.66;;;9.71;100.00
21588;BME280;10956;48.878;13.316;2023-05-12T01:30:08;93895.81;;;9.77;100.00
21588;BME280;10956;48.878;13.316;2023-05-12T01:32:37;93898.44;;;9.72;100.00
21588;BME280;10956;48.878;13.316;2023-05-12T01:35:03;93888.44;;;9.74;100.00
21588;BME280;10956;48.878;13.316;2023-05-12T01:37:28;93885.53;;;9.81;100.00
21588;BME280;10956;48.878;13.316;2023-05-12T01:39:54;93891.59;;;9.81;100.00
21588;BME280;10956;48.878;13.316;2023-05-12T01:42:20;93890.00;;;9.80;100.00
21588;BME280;10956;48.878;13.316;2023-05-12T01:44:45;93882.13;;;9.75;100.00
21588;BME280;10956;48.878;13.316;2023-05-12T01:47:11;93884.25;;;9.68;100.00
21588;BME280;10956;48.878;13.316;2023-05-12T01:49:36;93875.31;;;9.69;100.00
21588;BME280;10956;48.878;13.316;2023-05-12T01:52:02;93880.28;;;9.70;100.00
21588;BME280;10956;48.878;13.316;2023-05-12T01:54:28;93880.56;;;9.64;100.00
21588;BME280;10956;48.878;13.316;2023-05-12T01:56:53;93878.47;;;9.66;100.00
21588;BME280;10956;48.878;13.316;2023-05-12T01:59:19;93886.91;;;9.63;100.00
21588;BME280;10956;48.878;13.316;2023-05-12T02:01:44;93883.72;;;9.66;100.00
21588;BME280;10956;48.878;13.316;2023-05-12T02:04:10;93890.06;;;9.60;100.00
21588;BME280;10956;48.878;13.316;2023-05-12T02:06:35;93892.94;;;9.58;100.00
21588;BME280;10956;48.878;13.316;2023-05-12T02:09:00;93885.59;;;9.60;100.00
21588;BME280;10956;48.878;13.316;2023-05-12T02:11:26;93886.88;;;9.68;100.00
21588;BME280;10956;48.878;13.316;2023-05-12T02:13:51;93898.44;;;9.72;100.00
21588;BME280;10956;48.878;13.316;2023-05-12T02:16:17;93886.34;;;9.71;100.00
21588;BME280;10956;48.878;13.316;2023-05-12T02:18:42;93892.16;;;9.68;100.00
21588;BME280;10956;48.878;13.316;2023-05-12T02:21:07;93891.34;;;9.67;100.00
21588;BME280;10956;48.878;13.316;2023-05-12T02:23:33;93890.81;;;9.70;100.00
21588;BME280;10956;48.878;13.316;2023-05-12T02:25:58;93891.06;;;9.74;100.00
21588;BME280;10956;48.878;13.316;2023-05-12T02:28:24;93887.13;;;9.71;100.00
21588;BME280;10956;48.878;13.316;2023-05-12T02:30:50;93887.38;;;9.75;100.00
21588;BME280;10956;48.878;13.316;2023-05-12T02:33:19;93893.19;;;9.67;100.00
21588;BME280;10956;48.878;13.316;2023-05-12T02:35:45;93893.72;;;9.69;100.00
21588;BME280;10956;48.878;13.316;2023-05-12T02:38:11;93898.97;;;9.69;100.00
21588;BME280;10956;48.878;13.316;2023-05-12T02:40:37;93896.09;;;9.70;100.00
21588;BME280;10956;48.878;13.316;2023-05-12T02:43:02;93897.38;;;9.73;100.00
21588;BME280;10956;48.878;13.316;2023-05-12T02:45:28;93889.50;;;9.73;100.00
21588;BME280;10956;48.878;13.316;2023-05-12T02:47:53;93903.69;;;9.77;100.00
21588;BME280;10956;48.878;13.316;2023-05-12T02:50:19;93900.53;;;9.80;100.00
21588;BME280;10956;48.878;13.316;2023-05-12T02:52:48;93894.72;;;9.83;100.00
21588;BME280;10956;48.878;13.316;2023-05-12T02:55:14;93896.31;;;9.84;100.00
21588;BME280;10956;48.878;13.316;2023-05-12T02:57:39;93889.47;;;9.83;100.00
21588;BME280;10956;48.878;13.316;2023-05-12T03:00:06;93895.53;;;9.84;100.00
21588;BME280;10956;48.878;13.316;2023-05-12T03:02:36;93896.31;;;9.84;100.00
21588;BME280;10956;48.878;13.316;2023-05-12T03:05:03;93894.72;;;9.88;100.00
21588;BME280;10956;48.878;13.316;2023-05-12T03:07:28;93895.78;;;9.87;100.00
21588;BME280;10956;48.878;13.316;2023-05-12T03:09:54;93893.69;;;9.84;100.00
21588;BME280;10956;48.878;13.316;2023-05-12T03:12:19;93897.63;;;9.82;100.00
21588;BME280;10956;48.878;13.316;2023-05-12T03:14:45;93900.00;;;9.83;100.00
21588;BME280;10956;48.878;13.316;2023-05-12T03:17:11;93895.28;;;9.80;100.00
21588;BME280;10956;48.878;13.316;2023-05-12T03:19:37;93893.16;;;9.82;100.00
21588;BME280;10956;48.878;13.316;2023-05-12T03:22:02;93899.47;;;9.86;100.00
21588;BME280;10956;48.878;13.316;2023-05-12T03:24:28;93895.78;;;9.87;100.00
21588;BME280;10956;48.878;13.316;2023-05-12T03:26:54;93898.41;;;9.82;100.00
21588;BME280;10956;48.878;13.316;2023-05-12T03:29:20;93896.31;;;9.84;100.00
21588;BME280;10956;48.878;13.316;2023-05-12T03:31:45;93902.63;;;9.88;100.00
21588;BME280;10956;48.878;13.316;2023-05-12T03:34:11;93899.72;;;9.90;100.00
21588;BME280;10956;48.878;13.316;2023-05-12T03:36:36;93901.03;;;9.87;100.00
21588;BME280;10956;48.878;13.316;2023-05-12T03:39:02;93894.72;;;9.88;100.00
21588;BME280;10956;48.878;13.316;2023-05-12T03:41:27;93884.22;;;9.83;100.00
21588;BME280;10956;48.878;13.316;2023-05-12T03:43:53;93888.41;;;9.84;100.00
21588;BME280;10956;48.878;13.316;2023-05-12T03:46:18;93891.03;;;9.84;100.00
21588;BME280;10956;48.878;13.316;2023-05-12T03:48:45;93895.25;;;9.85;100.00
21588;BME280;10956;48.878;13.316;2023-05-12T03:51:10;93888.41;;;9.89;100.00
21588;BME280;10956;48.878;13.316;2023-05-12T03:53:35;93895.25;;;9.90;100.00
21588;BME280;10956;48.878;13.316;2023-05-12T03:56:04;93889.97;;;9.90;100.00
21588;BME280;10956;48.878;13.316;2023-05-12T03:58:30;93892.34;;;9.92;100.00
21588;BME280;10956;48.878;13.316;2023-05-12T04:00:56;93898.91;;;9.99;100.00
21588;BME280;10956;48.878;13.316;2023-05-12T04:03:21;93894.66;;;10.03;100.00
21588;BME280;10956;48.878;13.316;2023-05-12T04:05:46;93902.81;;;10.07;100.00
21588;BME280;10956;48.878;13.316;2023-05-12T04:08:12;93900.44;;;10.11;100.00
21588;BME280;10956;48.878;13.316;2023-05-12T04:10:38;93893.06;;;10.13;100.00
21588;BME280;10956;48.878;13.316;2023-05-12T04:13:04;93894.09;;;10.17;100.00
21588;BME280;10956;48.878;13.316;2023-05-12T04:15:30;93897.00;;;10.15;100.00
21588;BME280;10956;48.878;13.316;2023-05-12T04:17:56;93908.31;;;10.16;100.00
21588;BME280;10956;48.878;13.316;2023-05-12T04:20:21;93907.25;;;10.17;100.00
21588;BME280;10956;48.878;13.316;2023-05-12T04:22:47;93902.25;;;10.20;100.00
21588;BME280;10956;48.878;13.316;2023-05-12T04:25:12;93913.56;;;10.26;100.00
21588;BME280;10956;48.878;13.316;2023-05-12T04:27:38;93909.34;;;10.30;100.00
21588;BME280;10956;48.878;13.316;2023-05-12T04:30:03;93913.28;;;10.32;100.00
21588;BME280;10956;48.878;13.316;2023-05-12T04:32:29;93914.56;;;10.40;100.00
21588;BME280;10956;48.878;13.316;2023-05-12T04:34:54;93917.16;;;10.45;100.00
21588;BME280;10956;48.878;13.316;2023-05-12T04:37:20;93922.44;;;10.45;100.00
21588;BME280;10956;48.878;13.316;2023-05-12T04:39:46;93920.31;;;10.47;100.00
21588;BME280;10956;48.878;13.316;2023-05-12T04:42:12;93931.09;;;10.51;100.00
21588;BME280;10956;48.878;13.316;2023-05-12T04:44:37;93934.50;;;10.56;100.00
21588;BME280;10956;48.878;13.316;2023-05-12T04:47:03;93931.31;;;10.59;100.00
21588;BME280;10956;48.878;13.316;2023-05-12T04:49:28;93939.22;;;10.59;100.00
21588;BME280;10956;48.878;13.316;2023-05-12T04:51:54;93938.69;;;10.62;100.00
21588;BME280;10956;48.878;13.316;2023-05-12T04:54:20;93935.00;;;10.63;100.00
21588;BME280;10956;48.878;13.316;2023-05-12T04:56:47;93943.41;;;10.65;100.00
21588;BME280;10956;48.878;13.316;2023-05-12T04:59:12;93940.75;;;10.71;100.00
21588;BME280;10956;48.878;13.316;2023-05-12T05:01:42;93941.53;;;10.71;100.00
21588;BME280;10956;48.878;13.316;2023-05-12T05:04:07;93932.78;;;10.81;100.00
21588;BME280;10956;48.878;13.316;2023-05-12T05:06:33;93941.47;;;10.81;100.00
21588;BME280;10956;48.878;13.316;2023-05-12T05:08:58;93943.84;;;10.83;100.00
21588;BME280;10956;48.878;13.316;2023-05-12T05:11:24;93944.31;;;10.90;100.00
21588;BME280;10956;48.878;13.316;2023-05-12T05:13:50;93941.97;;;10.88;100.00
21588;BME280;10956;48.878;13.316;2023-05-12T05:16:16;93947.22;;;10.88;100.00
21588;BME280;10956;48.878;13.316;2023-05-12T05:18:42;93943.53;;;10.89;100.00
21588;BME280;10956;48.878;13.316;2023-05-12T05:21:11;93939.06;;;10.90;100.00
21588;BME280;10956;48.878;13.316;2023-05-12T05:23:38;93942.75;;;10.89;100.00
21588;BME280;10956;48.878;13.316;2023-05-12T05:26:03;93950.94;;;10.87;100.00
21588;BME280;10956;48.878;13.316;2023-05-12T05:28:29;93954.34;;;10.88;100.00
21588;BME280;10956;48.878;13.316;2023-05-12T05:30:55;93941.97;;;10.88;100.00
21588;BME280;10956;48.878;13.316;2023-05-12T05:33:21;93950.09;;;10.97;100.00
21588;BME280;10956;48.878;13.316;2023-05-12T05:35:47;93952.69;;;11.02;100.00
21588;BME280;10956;48.878;13.316;2023-05-12T05:38:13;93955.06;;;11.04;100.00
21588;BME280;10956;48.878;13.316;2023-05-12T05:40:38;93956.88;;;11.08;100.00
21588;BME280;10956;48.878;13.316;2023-05-12T05:43:04;93957.59;;;11.19;100.00
21588;BME280;10956;48.878;13.316;2023-05-12T05:45:29;93960.50;;;11.17;100.00
21588;BME280;10956;48.878;13.316;2023-05-12T05:47:55;93965.25;;;11.15;100.00
21588;BME280;10956;48.878;13.316;2023-05-12T05:50:20;93956.84;;;11.13;100.00
21588;BME280;10956;48.878;13.316;2023-05-12T05:52:46;93966.78;;;11.21;100.00
21588;BME280;10956;48.878;13.316;2023-05-12T05:55:11;93964.38;;;11.30;100.00
21588;BME280;10956;48.878;13.316;2023-05-12T05:57:36;93969.38;;;11.31;100.00
21588;BME280;10956;48.878;13.316;2023-05-12T06:00:03;93965.06;;;11.41;100.00
21588;BME280;10956;48.878;13.316;2023-05-12T06:02:29;93969.00;;;11.43;100.00
21588;BME280;10956;48.878;13.316;2023-05-12T06:04:56;93974.22;;;11.53;100.00
21588;BME280;10956;48.878;13.316;2023-05-12T06:07:21;93969.13;;;11.62;100.00
21588;BME280;10956;48.878;13.316;2023-05-12T06:09:47;93982.03;;;11.63;100.00
21588;BME280;10956;48.878;13.316;2023-05-12T06:12:12;93968.63;;;11.60;100.00
21588;BME280;10956;48.878;13.316;2023-05-12T06:14:38;93979.72;;;11.57;100.00
21588;BME280;10956;48.878;13.316;2023-05-12T06:17:03;93983.41;;;11.56;100.00
21588;BME280;10956;48.878;13.316;2023-05-12T06:19:28;93988.47;;;11.52;100.00
21588;BME280;10956;48.878;13.316;2023-05-12T06:21:54;93987.13;;;11.55;100.00
21588;BME280;10956;48.878;13.316;2023-05-12T06:24:19;93988.66;;;11.61;100.00
21588;BME280;10956;48.878;13.316;2023-05-12T06:26:45;93991.75;;;11.68;100.00
21588;BME280;10956;48.878;13.316;2023-05-12T06:29:10;93988.28;;;11.73;100.00
21588;BME280;10956;48.878;13.316;2023-05-12T06:31:35;93986.44;;;11.78;100.00
21588;BME280;10956;48.878;13.316;2023-05-12T06:34:01;93988.94;;;11.93;100.00
21588;BME280;10956;48.878;13.316;2023-05-12T06:36:27;93991.47;;;12.04;100.00
21588;BME280;10956;48.878;13.316;2023-05-12T06:38:53;93997.16;;;12.16;100.00
21588;BME280;10956;48.878;13.316;2023-05-12T06:41:18;93990.19;;;12.25;100.00
21588;BME280;10956;48.878;13.316;2023-05-12T06:43:43;93990.53;;;12.42;100.00
21588;BME280;10956;48.878;13.316;2023-05-12T06:46:09;93992.22;;;12.57;100.00
21588;BME280;10956;48.878;13.316;2023-05-12T06:48:34;93993.69;;;12.68;100.00
21588;BME280;10956;48.878;13.316;2023-05-12T06:51:00;93993.56;;;12.78;100.00
21588;BME280;10956;48.878;13.316;2023-05-12T06:53:25;93990.13;;;12.78;100.00
21588;BME280;10956;48.878;13.316;2023-05-12T06:55:51;93999.63;;;12.79;100.00
21588;BME280;10956;48.878;13.316;2023-05-12T06:58:17;93994.78;;;12.86;100.00
21588;BME280;10956;48.878;13.316;2023-05-12T07:00:46;93996.66;;;13.04;100.00
21588;BME280;10956;48.878;13.316;2023-05-12T07:03:12;93996.09;;;13.07;100.00
21588;BME280;10956;48.878;13.316;2023-05-12T07:05:37;94003.09;;;12.98;100.00
21588;BME280;10956;48.878;13.316;2023-05-12T07:08:04;93995.22;;;12.93;100.00
21588;BME280;10956;48.878;13.316;2023-05-12T07:10:30;93999.81;;;13.06;100.00
21588;BME280;10956;48.878;13.316;2023-05-12T07:12:57;93993.16;;;13.09;100.00
21588;BME280;10956;48.878;13.316;2023-05-12T07:15:22;93996.09;;;13.07;100.00
21588;BME280;10956;48.878;13.316;2023-05-12T07:17:47;93997.53;;;13.18;100.00
21588;BME280;10956;48.878;13.316;2023-05-12T07:20:13;93999.97;;;13.34;100.00
21588;BME280;10956;48.878;13.316;2023-05-12T07:22:38;94000.25;;;13.51;100.00
21588;BME280;10956;48.878;13.316;2023-05-12T07:25:04;94002.66;;;13.66;100.00
21588;BME280;10956;48.878;13.316;2023-05-12T07:27:30;94001.44;;;13.58;100.00
21588;BME280;10956;48.878;13.316;2023-05-12T07:29:56;94002.81;;;13.56;100.00
21588;BME280;10956;48.878;13.316;2023-05-12T07:32:21;94001.41;;;13.45;100.00
21588;BME280;10956;48.878;13.316;2023-05-12T07:34:47;93995.63;;;13.24;100.00
21588;BME280;10956;48.878;13.316;2023-05-12T07:37:12;94006.59;;;13.12;100.00
21588;BME280;10956;48.878;13.316;2023-05-12T07:39:37;94007.16;;;13.09;100.00
21588;BME280;10956;48.878;13.316;2023-05-12T07:42:03;94006.66;;;13.07;100.00
21588;BME280;10956;48.878;13.316;2023-05-12T07:44:28;94006.94;;;13.06;100.00
21588;BME280;10956;48.878;13.316;2023-05-12T07:46:55;94000.38;;;13.03;100.00
21588;BME280;10956;48.878;13.316;2023-05-12T07:49:20;94009.66;;;13.01;100.00
21588;BME280;10956;48.878;13.316;2023-05-12T07:51:47;94006.16;;;13.05;100.00
21588;BME280;10956;48.878;13.316;2023-05-12T07:54:13;94015.59;;;13.11;100.00
21588;BME280;10956;48.878;13.316;2023-05-12T07:56:38;94014.03;;;13.10;100.00
21588;BME280;10956;48.878;13.316;2023-05-12T07:59:03;94016.09;;;13.13;100.00
21588;BME280;10956;48.878;13.316;2023-05-12T08:01:29;94014.41;;;13.22;100.00
21588;BME280;10956;48.878;13.316;2023-05-12T08:03:54;94028.66;;;13.27;100.00
21588;BME280;10956;48.878;13.316;2023-05-12T08:06:20;94009.13;;;13.22;100.00
21588;BME280;10956;48.878;13.316;2023-05-12T08:08:45;94022.28;;;13.28;100.00
21588;BME280;10956;48.878;13.316;2023-05-12T08:11:11;94016.63;;;13.34;100.00
21588;BME280;10956;48.878;13.316;2023-05-12T08:13:37;94016.28;;;13.41;100.00
21588;BME280;10956;48.878;13.316;2023-05-12T08:16:02;94012.41;;;13.52;100.00
21588;BME280;10956;48.878;13.316;2023-05-12T08:18:28;94020.63;;;13.50;100.00
21588;BME280;10956;48.878;13.316;2023-05-12T08:20:54;94019.84;;;13.50;100.00
21588;BME280;10956;48.878;13.316;2023-05-12T08:23:19;94019.78;;;13.55;100.00
21588;BME280;10956;48.878;13.316;2023-05-12T08:25:45;94021.84;;;13.58;100.00
21588;BME280;10956;48.878;13.316;2023-05-12T08:28:12;94020.63;;;13.69;100.00
21588;BME280;10956;48.878;13.316;2023-05-12T08:30:38;94024.25;;;13.73;100.00
21588;BME280;10956;48.878;13.316;2023-05-12T08:33:03;94028.56;;;13.69;100.00
21588;BME280;10956;48.878;13.316;2023-05-12T08:35:29;94022.91;;;13.57;100.00
21588;BME280;10956;48.878;13.316;2023-05-12T08:37:55;94021.84;;;13.58;100.00
21588;BME280;10956;48.878;13.316;2023-05-12T08:40:23;94026.00;;;13.64;100.00
21588;BME280;10956;48.878;13.316;2023-05-12T08:45:36;94020.16;;;13.81;100.00
21588;BME280;10956;48.878;13.316;2023-05-12T08:48:03;94021.88;;;13.90;100.00
21588;BME280;10956;48.878;13.316;2023-05-12T08:50:29;94026.50;;;13.99;100.00
21588;BME280;10956;48.878;13.316;2023-05-12T08:52:57;94033.38;;;14.00;100.00
21588;BME280;10956;48.878;13.316;2023-05-12T08:55:23;94027.56;;;13.98;100.00
21588;BME280;10956;48.878;13.316;2023-05-12T08:57:50;94021.94;;;13.85;100.00
21588;BME280;10956;48.878;13.316;2023-05-12T09:00:16;94032.53;;;13.85;100.00
21588;BME280;10956;48.878;13.316;2023-05-12T09:02:44;94033.78;;;13.74;100.00
21588;BME280;10956;48.878;13.316;2023-05-12T09:05:11;94037.72;;;13.58;100.00
21588;BME280;10956;48.878;13.316;2023-05-12T09:07:41;94030.50;;;13.64;100.00
21588;BME280;10956;48.878;13.316;2023-05-12T09:10:14;94035.94;;;13.72;100.00
21588;BME280;10956;48.878;13.316;2023-05-12T09:12:41;94041.97;;;13.92;100.00
21588;BME280;10956;48.878;13.316;2023-05-12T09:15:14;94043.38;;;14.03;100.00
21588;BME280;10956;48.878;13.316;2023-05-12T09:17:42;94046.09;;;14.30;100.00
21588;BME280;10956;48.878;13.316;2023-05-12T09:20:08;94039.78;;;14.45;99.91
21588;BME280;10956;48.878;13.316;2023-05-12T09:22:35;94044.00;;;14.60;99.40
21588;BME280;10956;48.878;13.316;2023-05-12T09:25:12;94038.81;;;14.68;98.91
21588;BME280;10956;48.878;13.316;2023-05-12T09:27:38;94039.19;;;14.75;97.82
21588;BME280;10956;48.878;13.316;2023-05-12T09:30:04;94044.69;;;15.06;97.13
21588;BME280;10956;48.878;13.316;2023-05-12T09:32:31;94045.63;;;15.38;95.04
21588;BME280;10956;48.878;13.316;2023-05-12T09:35:09;94030.53;;;15.47;94.29
21588;BME280;10956;48.878;13.316;2023-05-12T09:37:38;94045.44;;;15.21;93.85
21588;BME280;10956;48.878;13.316;2023-05-12T09:40:07;94046.03;;;15.17;93.29
21588;BME280;10956;48.878;13.316;2023-05-12T09:42:33;94058.84;;;14.88;92.72
21588;BME280;10956;48.878;13.316;2023-05-12T09:45:04;94058.06;;;14.74;93.63
21588;BME280;10956;48.878;13.316;2023-05-12T09:47:34;94056.69;;;14.76;93.02
21588;BME280;10956;48.878;13.316;2023-05-12T09:50:01;94055.81;;;14.81;92.54
21588;BME280;10956;48.878;13.316;2023-05-12T09:52:27;94054.13;;;14.99;92.33
21588;BME280;10956;48.878;13.316;2023-05-12T09:54:53;94063.47;;;15.10;91.45
21588;BME280;10956;48.878;13.316;2023-05-12T09:57:20;94059.25;;;14.81;90.00
21588;BME280;10956;48.878;13.316;2023-05-12T09:59:48;94054.22;;;14.80;91.09
21588;BME280;10956;48.878;13.316;2023-05-12T10:02:14;94060.50;;;15.11;90.35
21588;BME280;10956;48.878;13.316;2023-05-12T10:04:49;94048.38;;;15.33;88.99
21588;BME280;10956;48.878;13.316;2023-05-12T10:07:17;94051.88;;;15.56;89.42
21588;BME280;10956;48.878;13.316;2023-05-12T10:09:47;94046.34;;;15.66;87.66
21588;BME280;10956;48.878;13.316;2023-05-12T10:12:13;94051.31;;;15.45;88.18
21588;BME280;10956;48.878;13.316;2023-05-12T10:14:39;94049.31;;;15.64;89.65
21588;BME280;10956;48.878;13.316;2023-05-12T10:17:05;94045.44;;;15.70;90.17
21588;BME280;10956;48.878;13.316;2023-05-12T10:19:34;94054.44;;;15.47;90.68
21588;BME280;10956;48.878;13.316;2023-05-12T10:22:00;94048.28;;;15.38;91.67
21588;BME280;10956;48.878;13.316;2023-05-12T10:24:26;94048.09;;;15.34;90.84
21588;BME280;10956;48.878;13.316;2023-05-12T10:26:55;94062.16;;;15.35;91.55
21588;BME280;10956;48.878;13.316;2023-05-12T10:29:22;94047.88;;;15.31;91.07
21588;BME280;10956;48.878;13.316;2023-05-12T10:31:55;94047.03;;;15.22;92.89
21588;BME280;10956;48.878;13.316;2023-05-12T10:34:21;94057.84;;;15.11;93.39
21588;BME280;10956;48.878;13.316;2023-05-12T10:36:48;94048.03;;;14.98;91.38
21588;BME280;10956;48.878;13.316;2023-05-12T10:39:14;94060.63;;;14.79;91.61
21588;BME280;10956;48.878;13.316;2023-05-12T10:41:40;94056.88;;;14.80;91.55
21588;BME280;10956;48.878;13.316;2023-05-12T10:44:06;94057.06;;;14.70;92.38
21588;BME280;10956;48.878;13.316;2023-05-12T10:46:33;94062.59;;;14.73;92.16
21588;BME280;10956;48.878;13.316;2023-05-12T10:49:11;94062.38;;;14.70;92.72
21588;BME280;10956;48.878;13.316;2023-05-12T10:54:09;94059.63;;;14.89;92.93
21588;BME280;10956;48.878;13.316;2023-05-12T11:02:01;94063.72;;;15.36;87.91
21588;BME280;10956;48.878;13.316;2023-05-12T11:07:22;94062.94;;;15.35;86.28
21588;BME280;10956;48.878;13.316;2023-05-12T11:09:48;94058.25;;;14.91;87.35
21588;BME280;10956;48.878;13.316;2023-05-12T11:12:14;94060.31;;;14.53;88.94
21588;BME280;10956;48.878;13.316;2023-05-12T11:14:41;94058.78;;;14.33;90.83
21588;BME280;10956;48.878;13.316;2023-05-12T11:17:07;94065.31;;;14.22;91.58
21588;BME280;10956;48.878;13.316;2023-05-12T11:19:33;94065.81;;;14.24;92.45
21588;BME280;10956;48.878;13.316;2023-05-12T11:22:07;94063.84;;;14.48;91.88
21588;BME280;10956;48.878;13.316;2023-05-12T11:24:36;94072.78;;;14.66;90.69
21588;BME280;10956;48.878;13.316;2023-05-12T11:27:03;94067.88;;;14.87;90.22
21588;BME280;10956;48.878;13.316;2023-05-12T11:29:29;94074.75;;;15.02;87.87
21588;BME280;10956;48.878;13.316;2023-05-12T11:31:55;94073.97;;;15.01;88.65
21588;BME280;10956;48.878;13.316;2023-05-12T11:34:22;94070.16;;;14.80;88.70
21588;BME280;10956;48.878;13.316;2023-05-12T11:36:50;94063.56;;;14.64;90.01
21588;BME280;10956;48.878;13.316;2023-05-12T11:39:17;94068.47;;;14.57;90.48
21588;BME280;10956;48.878;13.316;2023-05-12T11:41:44;94067.69;;;14.56;90.04
21588;BME280;10956;48.878;13.316;2023-05-12T11:44:18;94071.81;;;14.62;90.03
21588;BME280;10956;48.878;13.316;2023-05-12T11:49:47;94077.53;;;14.37;89.67
21588;BME280;10956;48.878;13.316;2023-05-12T11:52:14;94083.69;;;14.32;90.91
21588;BME280;10956;48.878;13.316;2023-05-12T11:54:56;94079.75;;;14.16;90.86
21588;BME280;10956;48.878;13.316;2023-05-12T11:57:26;94078.00;;;13.93;91.72
21588;BME280;10956;48.878;13.316;2023-05-12T12:00:00;94083.28;;;13.93;91.54
21588;BME280;10956;48.878;13.316;2023-05-12T12:02:26;94088.00;;;14.28;91.39
21588;BME280;10956;48.878;13.316;2023-05-12T12:04:52;94089.00;;;14.32;88.19
21588;BME280;10956;48.878;13.316;2023-05-12T12:07:34;94096.00;;;14.09;90.44
21588;BME280;10956;48.878;13.316;2023-05-12T12:10:13;94089.91;;;14.09;91.14
21588;BME280;10956;48.878;13.316;2023-05-12T12:12:40;94102.53;;;14.31;90.01
21588;BME280;10956;48.878;13.316;2023-05-12T12:15:06;94094.16;;;14.42;89.11
21588;BME280;10956;48.878;13.316;2023-05-12T12:17:31;94102.25;;;14.32;92.43
21588;BME280;10956;48.878;13.316;2023-05-12T12:19:57;94105.31;;;14.07;92.80
21588;BME280;10956;48.878;13.316;2023-05-12T12:22:22;94103.06;;;13.81;93.27
21588;BME280;10956;48.878;13.316;2023-05-12T12:24:48;94109.16;;;13.63;95.36
21588;BME280;10956;48.878;13.316;2023-05-12T12:27:13;94112.94;;;13.57;95.32
21588;BME280;10956;48.878;13.316;2023-05-12T12:29:38;94112.66;;;13.77;96.04
21588;BME280;10956;48.878;13.316;2023-05-12T12:32:04;94115.34;;;14.10;94.98
21588;BME280;10956;48.878;13.316;2023-05-12T12:34:30;94118.63;;;14.20;94.75
21588;BME280;10956;48.878;13.316;2023-05-12T12:36:56;94124.22;;;14.00;95.48
21588;BME280;10956;48.878;13.316;2023-05-12T12:39:21;94119.88;;;13.72;95.54
21588;BME280;10956;48.878;13.316;2023-05-12T12:41:47;94123.81;;;13.74;95.40
21588;BME280;10956;48.878;13.316;2023-05-12T12:44:13;94119.13;;;14.22;94.66
21588;BME280;10956;48.878;13.316;2023-05-12T12:46:38;94111.41;;;14.72;91.22
21588;BME280;10956;48.878;13.316;2023-05-12T12:49:04;94119.59;;;15.03;90.38
21588;BME280;10956;48.878;13.316;2023-05-12T12:51:30;94118.59;;;15.27;89.45
21588;BME280;10956;48.878;13.316;2023-05-12T12:53:56;94117.22;;;15.02;87.59
21588;BME280;10956;48.878;13.316;2023-05-12T12:56:22;94124.06;;;14.62;90.89
21588;BME280;10956;48.878;13.316;2023-05-12T12:58:49;94125.63;;;14.30;92.37